Time;durP1;ratioP1;P1;durP2;ratioP2;P2;SDS_P1;SDS_P2;PMS_P1;PMS_P2;Temp;Humidity;BMP_temperature;BMP_pressure;BME280_temperature;BME280_humidity;BME280_pressure;Samples;Min_cycle;Max_cycle;Signal;HPM_P1;HPM_P2
2022/09/17 00:04:51;;;;;;;4.03;0.90;;;16.70;89.40;;;;;;10478551;28;20236;-65
2022/09/17 00:09:51;;;;;;;8.82;0.90;;;16.70;89.30;;;;;;10484578;22;20056;-64
2022/09/17 00:14:53;;;;;;;5.03;0.98;;;16.60;89.20;;;;;;10483232;28;20029;-65
2022/09/17 00:19:54;;;;;;;6.53;0.82;;;16.60;89.20;;;;;;10480277;28;20460;-65
2022/09/17 00:24:55;;;;;;;5.03;1.17;;;17.10;89.40;;;;;;10480777;28;20029;-65
2022/09/17 00:29:56;;;;;;;8.25;1.10;;;16.60;89.10;;;;;;10476808;28;20035;-64
2022/09/17 00:34:56;;;;;;;3.95;0.88;;;16.60;89.10;;;;;;10474916;28;20035;-65
2022/09/17 00:39:57;;;;;;;4.80;0.90;;;16.60;89.00;;;;;;10478050;28;20060;-64
2022/09/17 00:44:58;;;;;;;6.47;0.98;;;16.60;89.10;;;;;;10478917;28;20036;-65
2022/09/17 00:50:11;;;;;;;6.63;0.90;;;16.60;89.10;;;;;;10479758;28;20036;-64
2022/09/17 00:55:21;;;;;;;5.57;1.00;;;16.50;89.00;;;;;;10480229;28;20024;-64
2022/09/17 01:00:22;;;;;;;7.28;0.93;;;16.50;89.00;;;;;;10476785;28;20404;-67
2022/09/17 01:05:53;;;;;;;4.80;0.90;;;16.50;89.00;;;;;;10482649;28;20047;-64
2022/09/17 01:11:17;;;;;;;4.43;0.80;;;16.50;89.00;;;;;;10479038;28;20048;-64
2022/09/17 01:16:43;;;;;;;4.32;0.70;;;16.50;89.00;;;;;;10478648;28;20020;-68
2022/09/17 01:22:13;;;;;;;3.75;0.95;;;16.40;88.90;;;;;;10476895;28;22300;-65
2022/09/17 01:27:33;;;;;;;4.68;0.77;;;16.40;89.10;;;;;;10476335;28;20044;-65
2022/09/17 01:32:45;;;;;;;3.88;0.70;;;16.40;88.90;;;;;;10480104;28;20028;-66
2022/09/17 01:38:15;;;;;;;5.78;1.15;;;16.40;89.50;;;;;;10479922;28;20083;-65
2022/09/17 01:43:24;;;;;;;3.80;0.70;;;16.40;88.90;;;;;;10489965;28;20449;-65
2022/09/17 01:48:26;;;;;;;;;;;16.30;88.80;;;;;;10491933;28;20125;-65
2022/09/17 01:53:37;;;;;;;4.65;1.00;;;16.30;88.70;;;;;;10490676;28;19954;-65
2022/09/17 01:58:50;;;;;;;4.13;0.70;;;16.30;88.70;;;;;;10494238;28;20024;-65
2022/09/17 02:04:01;;;;;;;2.30;0.85;;;16.30;88.80;;;;;;10493090;28;20650;-65
2022/09/17 02:09:21;;;;;;;5.75;0.85;;;16.30;88.70;;;;;;10490620;28;20040;-65
2022/09/17 02:14:27;;;;;;;3.78;1.20;;;16.30;88.70;;;;;;10476777;28;20059;-65
2022/09/17 02:19:36;;;;;;;3.20;0.90;;;16.20;88.70;;;;;;10475744;28;20414;-65
2022/09/17 02:24:37;;;;;;;4.22;1.02;;;16.20;88.60;;;;;;10470937;28;20024;-65
2022/09/17 02:29:42;;;;;;;2.95;1.02;;;16.20;88.60;;;;;;10468652;28;20448;-65
2022/09/17 02:34:43;;;;;;;4.63;0.73;;;16.20;88.60;;;;;;10462794;28;20021;-64
2022/09/17 02:39:45;;;;;;;4.50;0.70;;;16.20;88.70;;;;;;10469697;28;20520;-65
2022/09/17 02:44:49;;;;;;;2.55;0.60;;;16.20;88.70;;;;;;10474185;28;20017;-66
2022/09/17 02:50:05;;;;;;;4.50;1.27;;;16.20;88.60;;;;;;10463601;28;20366;-65
2022/09/17 02:55:42;;;;;;;2.83;0.80;;;16.20;88.60;;;;;;10456604;28;20207;-65
2022/09/17 03:00:44;;;;;;;4.97;0.90;;;16.20;88.60;;;;;;10452090;28;20413;-64
2022/09/17 03:05:45;;;;;;;7.97;0.88;;;16.10;88.50;;;;;;10464948;28;20051;-64
2022/09/17 03:10:48;;;;;;;3.10;0.90;;;16.10;88.60;;;;;;10482322;22;20048;-65
2022/09/17 03:15:48;;;;;;;2.83;0.80;;;16.10;88.60;;;;;;10521745;28;20032;-66
2022/09/17 03:20:49;;;;;;;2.85;0.60;;;16.10;88.50;;;;;;10525075;28;20044;-64
2022/09/17 03:25:51;;;;;;;3.67;1.17;;;16.10;88.60;;;;;;10519338;28;20043;-64
2022/09/17 03:30:52;;;;;;;3.30;0.60;;;16.00;88.50;;;;;;10520329;28;20447;-65
2022/09/17 03:35:53;;;;;;;3.13;0.43;;;16.00;88.50;;;;;;10521116;28;20044;-64
2022/09/17 03:41:02;;;;;;;4.45;0.80;;;16.00;88.50;;;;;;10506370;28;20127;-65
2022/09/17 03:46:03;;;;;;;2.78;0.80;;;16.00;88.50;;;;;;10371345;23;20069;-64
2022/09/17 03:51:05;;;;;;;3.83;0.60;;;16.00;88.50;;;;;;10354435;28;20117;-65
2022/09/17 03:56:06;;;;;;;2.88;0.50;;;16.00;88.50;;;;;;10356262;28;20106;-64
2022/09/17 04:01:07;;;;;;;1.80;0.52;;;16.00;88.50;;;;;;10356392;28;20040;-64
2022/09/17 04:06:08;;;;;;;2.78;0.47;;;16.00;88.50;;;;;;10359657;28;20500;-64
2022/09/17 04:11:08;;;;;;;2.38;0.73;;;16.00;88.50;;;;;;10352726;28;20113;-65
2022/09/17 04:16:10;;;;;;;3.88;0.60;;;15.90;88.50;;;;;;10355500;28;20033;-64
2022/09/17 04:21:10;;;;;;;4.13;0.90;;;15.90;88.50;;;;;;10352988;28;20050;-65
2022/09/17 04:26:11;;;;;;;4.32;0.90;;;15.90;88.40;;;;;;10352674;28;20026;-64
2022/09/17 04:31:12;;;;;;;1.92;0.52;;;15.90;88.50;;;;;;10356355;28;20038;-65
2022/09/17 04:36:13;;;;;;;4.47;1.67;;;15.90;88.50;;;;;;10353938;28;20041;-65
2022/09/17 04:41:13;;;;;;;6.70;0.82;;;15.90;88.40;;;;;;10333782;28;20095;-67
2022/09/17 04:46:15;;;;;;;3.92;0.60;;;15.80;88.40;;;;;;10389312;28;20715;-64
2022/09/17 04:51:16;;;;;;;4.68;0.73;;;15.80;88.40;;;;;;10392375;28;20508;-64
2022/09/17 04:56:17;;;;;;;3.80;0.63;;;15.80;88.40;;;;;;10394637;28;20317;-65
2022/09/17 05:01:17;;;;;;;3.20;0.63;;;15.80;88.40;;;;;;10392675;28;20776;-64
2022/09/17 05:06:18;;;;;;;3.00;0.88;;;15.80;88.30;;;;;;10392642;28;20069;-64
2022/09/17 05:11:19;;;;;;;3.67;0.60;;;15.80;88.40;;;;;;10376534;28;20052;-65
2022/09/17 05:16:20;;;;;;;3.10;0.65;;;15.80;88.30;;;;;;10388534;28;20478;-64
2022/09/17 05:21:20;;;;;;;5.97;0.63;;;15.80;88.40;;;;;;10391764;28;21087;-63
2022/09/17 05:26:21;;;;;;;7.35;1.10;;;15.80;88.30;;;;;;10393194;28;20026;-64
2022/09/17 05:31:22;;;;;;;3.25;0.80;;;15.70;88.20;;;;;;10391081;28;20037;-63
2022/09/17 05:36:22;;;;;;;3.30;0.60;;;15.70;88.30;;;;;;10393791;28;20354;-63
2022/09/17 05:41:23;;;;;;;6.95;0.85;;;15.70;88.20;;;;;;10320613;28;20053;-64
2022/09/17 05:46:24;;;;;;;3.63;0.85;;;15.70;88.30;;;;;;10285699;28;20065;-64
2022/09/17 05:51:25;;;;;;;3.60;0.80;;;15.70;88.20;;;;;;10316243;28;20040;-64
2022/09/17 05:56:26;;;;;;;3.45;0.70;;;15.70;88.20;;;;;;10377456;23;20087;-65
2022/09/17 06:01:26;;;;;;;3.92;0.50;;;15.60;88.10;;;;;;10435361;28;20048;-64
2022/09/17 06:06:29;;;;;;;5.95;0.88;;;15.60;88.10;;;;;;10438142;28;20279;-64
2022/09/17 06:11:30;;;;;;;5.57;0.73;;;15.60;88.00;;;;;;10439222;28;20110;-67
2022/09/17 06:16:35;;;;;;;5.47;0.90;;;15.60;88.00;;;;;;10441358;28;20429;-64
2022/09/17 06:21:36;;;;;;;3.08;0.50;;;15.60;88.00;;;;;;10457660;22;20446;-67
2022/09/17 06:26:37;;;;;;;2.75;0.60;;;15.60;87.90;;;;;;10434929;28;20139;-62
2022/09/17 06:31:37;;;;;;;5.63;0.98;;;15.60;87.90;;;;;;10446363;28;20098;-65
2022/09/17 06:36:38;;;;;;;1.23;0.60;;;15.60;88.40;;;;;;10446898;28;20024;-64
2022/09/17 06:41:42;;;;;;;3.97;1.25;;;15.60;87.70;;;;;;10450106;28;20258;-64
2022/09/17 06:46:43;;;;;;;3.65;0.65;;;15.70;87.80;;;;;;10454296;28;20451;-64
2022/09/17 06:51:44;;;;;;;4.55;0.60;;;15.70;87.80;;;;;;10444997;28;20147;-64
2022/09/17 06:56:47;;;;;;;2.45;0.60;;;15.70;87.80;;;;;;10443397;28;20157;-64
2022/09/17 07:01:48;;;;;;;2.72;0.38;;;15.70;87.70;;;;;;10478074;22;20602;-63
2022/09/17 07:06:49;;;;;;;3.45;0.50;;;15.70;87.60;;;;;;10440412;28;20039;-63
2022/09/17 07:11:49;;;;;;;2.28;0.45;;;15.70;87.50;;;;;;10448760;28;20463;-64
2022/09/17 07:16:51;;;;;;;2.50;0.60;;;15.80;87.70;;;;;;10447088;28;20159;-64
2022/09/17 07:21:52;;;;;;;4.00;0.70;;;15.80;87.60;;;;;;10447673;28;20597;-64
2022/09/17 07:26:53;;;;;;;1.88;0.50;;;15.80;87.50;;;;;;10441232;28;20879;-63
2022/09/17 07:31:54;;;;;;;3.05;0.70;;;15.80;87.50;;;;;;10443905;28;20539;-63
2022/09/17 07:36:55;;;;;;;2.85;0.75;;;15.80;87.40;;;;;;10451607;28;20032;-63
2022/09/17 07:41:55;;;;;;;3.08;0.40;;;15.90;87.30;;;;;;10445468;28;20443;-67
2022/09/17 07:46:56;;;;;;;4.10;0.73;;;15.90;87.20;;;;;;10400007;28;20028;-64
2022/09/17 07:51:58;;;;;;;2.05;1.10;;;16.00;87.10;;;;;;10436619;28;20601;-64
2022/09/17 07:56:59;;;;;;;6.10;0.60;;;16.10;87.00;;;;;;10423722;28;20444;-63
2022/09/17 08:02:00;;;;;;;3.10;0.57;;;16.10;86.90;;;;;;10439505;28;20114;-64
2022/09/17 08:07:01;;;;;;;4.82;0.50;;;16.20;86.80;;;;;;10443998;28;20039;-64
2022/09/17 08:12:02;;;;;;;3.42;0.60;;;16.30;86.70;;;;;;10444138;28;20028;-63
2022/09/17 08:17:05;;;;;;;3.65;0.82;;;16.30;86.80;;;;;;10427373;28;20131;-63
2022/09/17 08:22:09;;;;;;;1.38;0.40;;;16.30;86.90;;;;;;10441493;28;20315;-63
2022/09/17 08:27:09;;;;;;;3.45;0.50;;;16.30;87.00;;;;;;10437657;28;20556;-63
2022/09/17 08:32:11;;;;;;;3.50;0.63;;;16.30;87.10;;;;;;10438245;28;20039;-63
2022/09/17 08:37:12;;;;;;;2.90;0.52;;;16.20;87.50;;;;;;10437424;28;20036;-63
2022/09/17 08:42:36;;;;;;;4.13;0.68;;;16.10;87.50;;;;;;10443513;28;20589;-61
2022/09/17 08:47:39;;;;;;;2.47;0.60;;;16.20;87.50;;;;;;10431640;28;20875;-63
2022/09/17 08:52:59;;;;;;;3.17;0.60;;;16.30;87.50;;;;;;10434648;28;20111;-65
2022/09/17 08:58:23;;;;;;;4.13;0.90;;;16.30;87.50;;;;;;10434548;28;20582;-63
2022/09/17 09:03:24;;;;;;;4.03;0.75;;;16.30;88.10;;;;;;10438086;28;20047;-62
2022/09/17 09:08:34;;;;;;;3.92;0.55;;;16.20;88.20;;;;;;10435647;28;20020;-62
2022/09/17 09:13:43;;;;;;;2.05;0.43;;;16.20;88.60;;;;;;10437727;28;20646;-62
2022/09/17 09:18:47;;;;;;;3.47;0.63;;;16.30;88.50;;;;;;10433001;28;20031;-66
2022/09/17 09:23:57;;;;;;;4.57;0.60;;;16.30;88.30;;;;;;10436779;28;20380;-62
2022/09/17 09:29:17;;;;;;;3.00;0.52;;;16.40;88.30;;;;;;10436827;28;20101;-61
2022/09/17 09:34:18;;;;;;;3.20;0.55;;;16.40;88.10;;;;;;10437886;28;20024;-62
2022/09/17 09:39:29;;;;;;;3.88;0.90;;;16.40;88.10;;;;;;10431333;28;20343;-63
2022/09/17 09:44:30;;;;;;;2.30;0.43;;;16.40;88.60;;;;;;10439848;28;20553;-66
2022/09/17 09:50:13;;;;;;;2.70;0.73;;;16.40;88.20;;;;;;10439034;28;20028;-62
2022/09/17 09:56:02;;;;;;;1.63;0.47;;;16.50;88.70;;;;;;10423313;28;20052;-61
2022/09/17 10:01:14;;;;;;;2.88;0.43;;;16.60;88.50;;;;;;10434774;28;20050;-62
2022/09/17 10:06:16;;;;;;;4.35;1.20;;;16.60;88.30;;;;;;10449348;28;20730;-62
2022/09/17 10:11:25;;;;;;;1.73;0.22;;;16.70;88.10;;;;;;10446918;28;20490;-63
2022/09/17 10:16:28;;;;;;;3.08;0.90;;;16.80;88.20;;;;;;10449255;28;20487;-63
2022/09/17 10:21:40;;;;;;;2.65;0.57;;;16.80;87.90;;;;;;10447140;28;20143;-62
2022/09/17 10:26:41;;;;;;;2.15;0.65;;;16.90;88.00;;;;;;10442554;28;20032;-63
2022/09/17 10:31:53;;;;;;;1.63;0.50;;;17.00;87.80;;;;;;10446701;28;20021;-67
2022/09/17 10:36:57;;;;;;;1.08;0.43;;;17.10;87.70;;;;;;10444999;28;20036;-62
2022/09/17 10:42:11;;;;;;;3.10;0.60;;;17.10;87.70;;;;;;10444553;28;20039;-62
2022/09/17 10:47:36;;;;;;;3.00;0.50;;;17.10;87.90;;;;;;10428974;28;20039;-61
2022/09/17 10:52:41;;;;;;;3.05;0.50;;;17.00;88.30;;;;;;10447396;28;20147;-62
2022/09/17 10:57:52;;;;;;;1.45;0.60;;;17.00;88.20;;;;;;10442219;28;20405;-65
2022/09/17 11:03:20;;;;;;;0.80;0.17;;;17.10;88.20;;;;;;10443135;28;20055;-63
2022/09/17 11:08:41;;;;;;;2.15;0.50;;;17.10;88.40;;;;;;10439911;28;20535;-65
2022/09/17 11:13:57;;;;;;;1.75;0.40;;;17.00;88.40;;;;;;10434313;28;20422;-62
2022/09/17 11:19:17;;;;;;;1.08;0.35;;;17.00;88.70;;;;;;10431737;28;20176;-63
2022/09/17 11:24:23;;;;;;;0.93;0.45;;;17.00;88.80;;;;;;10433395;28;20473;-66
2022/09/17 11:30:02;;;;;;;2.15;0.30;;;17.00;88.70;;;;;;10431206;28;20781;-68
2022/09/17 11:35:17;;;;;;;3.58;0.40;;;17.10;88.80;;;;;;10427887;28;20382;-62
2022/09/17 11:40:51;;;;;;;2.47;0.40;;;17.00;88.50;;;;;;10432300;28;20046;-62
2022/09/17 11:46:04;;;;;;;1.77;0.40;;;17.20;88.60;;;;;;10430101;28;20049;-62
2022/09/17 11:51:31;;;;;;;1.60;0.45;;;17.30;88.40;;;;;;10422575;28;20569;-67
2022/09/17 11:56:42;;;;;;;2.47;0.40;;;17.30;88.40;;;;;;10419940;28;20282;-62
2022/09/17 12:01:50;;;;;;;2.20;0.55;;;17.40;88.30;;;;;;10424678;28;20050;-62
2022/09/17 12:07:00;;;;;;;2.22;0.47;;;17.40;88.20;;;;;;10427511;28;20045;-63
2022/09/17 12:12:16;;;;;;;5.30;0.60;;;17.40;88.00;;;;;;10434842;28;20036;-62
2022/09/17 12:17:24;;;;;;;1.80;0.57;;;17.40;88.30;;;;;;10437277;28;20028;-63
2022/09/17 12:22:31;;;;;;;3.27;1.07;;;17.30;88.60;;;;;;10439230;28;20376;-64
2022/09/17 12:27:52;;;;;;;5.22;0.95;;;17.30;88.60;;;;;;10443205;28;20272;-62
2022/09/17 12:33:10;;;;;;;2.25;0.43;;;17.40;88.80;;;;;;10441943;28;20154;-62
2022/09/17 12:38:39;;;;;;;2.88;0.73;;;17.40;88.80;;;;;;10439767;28;20525;-62
2022/09/17 12:44:05;;;;;;;8.27;0.80;;;17.50;89.90;;;;;;10438597;28;20101;-62
2022/09/17 12:49:12;;;;;;;2.92;0.70;;;17.50;88.80;;;;;;10440031;28;20162;-62
2022/09/17 12:54:15;;;;;;;2.22;0.60;;;17.60;88.60;;;;;;10440645;28;20021;-62
2022/09/17 12:59:19;;;;;;;4.78;0.85;;;17.60;88.70;;;;;;10438870;28;20520;-64
2022/09/17 13:04:25;;;;;;;4.13;0.70;;;17.60;88.70;;;;;;10442573;28;20227;-63
2022/09/17 13:09:43;;;;;;;2.85;0.50;;;17.70;88.80;;;;;;10446255;28;20738;-62
2022/09/17 13:15:26;;;;;;;3.28;0.70;;;17.70;89.20;;;;;;10448323;28;20063;-64
2022/09/17 13:20:54;;;;;;;2.60;0.70;;;17.70;89.30;;;;;;10443533;28;20694;-63
2022/09/17 13:25:54;;;;;;;6.53;0.77;;;17.90;89.20;;;;;;10441460;28;20036;-61
2022/09/17 13:31:00;;;;;;;5.25;0.90;;;17.90;88.90;;;;;;10443187;28;20155;-62
2022/09/17 13:36:03;;;;;;;4.43;0.88;;;17.90;89.40;;;;;;10440900;28;20137;-62
2022/09/17 13:41:19;;;;;;;8.35;0.85;;;17.80;89.70;;;;;;10440373;28;20040;-63
2022/09/17 13:46:22;;;;;;;4.88;0.90;;;17.70;90.10;;;;;;10440269;28;20032;-62
2022/09/17 13:51:29;;;;;;;2.63;0.63;;;17.60;90.20;;;;;;10441669;28;20028;-62
2022/09/17 13:56:44;;;;;;;2.92;0.80;;;17.70;90.20;;;;;;10442658;28;20031;-65
2022/09/17 14:02:30;;;;;;;4.90;1.10;;;17.90;90.30;;;;;;10438245;28;20606;-62
2022/09/17 14:07:32;;;;;;;5.65;1.10;;;17.80;90.50;;;;;;10442052;28;20109;-62
2022/09/17 14:12:49;;;;;;;3.83;0.90;;;17.80;90.30;;;;;;10426797;28;20119;-62
2022/09/17 14:17:51;;;;;;;7.20;1.15;;;17.90;90.30;;;;;;10435949;28;20041;-62
2022/09/17 14:23:00;;;;;;;5.70;2.15;;;17.90;90.30;;;;;;10437071;28;20696;-62
2022/09/17 14:28:25;;;;;;;4.00;0.80;;;17.90;90.20;;;;;;10426292;28;20542;-61
2022/09/17 14:33:30;;;;;;;5.38;1.20;;;18.10;90.00;;;;;;10425857;28;20040;-61
2022/09/17 14:38:38;;;;;;;5.20;1.20;;;18.50;89.70;;;;;;10423337;28;20890;-61
2022/09/17 14:43:42;;;;;;;3.88;0.73;;;18.30;89.10;;;;;;10425462;28;20645;-61
2022/09/17 14:48:43;;;;;;;4.05;1.05;;;18.30;88.80;;;;;;10422218;28;20110;-61
2022/09/17 14:53:45;;;;;;;3.90;1.00;;;18.30;88.90;;;;;;10433015;28;20295;-61
2022/09/17 14:58:50;;;;;;;2.10;0.50;;;18.20;89.00;;;;;;10440283;28;20255;-62
2022/09/17 15:04:12;;;;;;;2.03;0.52;;;18.20;89.30;;;;;;10442062;28;20117;-62
2022/09/17 15:09:22;;;;;;;2.88;0.60;;;18.10;89.70;;;;;;10440757;28;20312;-66
2022/09/17 15:14:28;;;;;;;3.10;0.70;;;18.10;89.90;;;;;;10447836;28;20307;-62
2022/09/17 15:19:32;;;;;;;8.02;1.17;;;18.00;90.00;;;;;;10439780;28;20125;-62
2022/09/17 15:24:38;;;;;;;8.68;0.82;;;18.00;90.10;;;;;;10437610;28;20037;-62
2022/09/17 15:29:43;;;;;;;4.63;0.75;;;17.90;90.10;;;;;;10427630;28;20695;-63
2022/09/17 15:34:45;;;;;;;4.20;1.10;;;17.90;90.00;;;;;;10427287;28;20485;-66
2022/09/17 15:39:50;;;;;;;4.15;0.63;;;17.90;90.20;;;;;;10428678;28;20040;-62
2022/09/17 15:44:52;;;;;;;2.47;0.50;;;17.90;89.70;;;;;;10427680;28;20119;-62
2022/09/17 15:50:15;;;;;;;2.92;0.52;;;17.90;89.70;;;;;;10435016;28;20266;-61
2022/09/17 15:55:28;;;;;;;3.22;0.55;;;17.90;89.50;;;;;;10436544;28;20497;-61
2022/09/17 16:00:30;;;;;;;10.73;1.08;;;17.80;89.60;;;;;;10427756;28;20570;-62
2022/09/17 16:05:44;;;;;;;1.70;0.50;;;17.80;89.80;;;;;;10435499;28;20791;-62
2022/09/17 16:10:45;;;;;;;3.03;0.57;;;17.80;89.70;;;;;;10435154;28;20202;-64
2022/09/17 16:15:47;;;;;;;3.85;0.57;;;17.70;89.80;;;;;;10441982;28;20032;-62
2022/09/17 16:20:48;;;;;;;4.32;0.80;;;17.70;89.80;;;;;;10442073;28;20411;-63
2022/09/17 16:25:49;;;;;;;3.80;0.80;;;17.70;89.90;;;;;;10438440;28;20111;-68
2022/09/17 16:30:50;;;;;;;4.22;0.77;;;17.60;89.90;;;;;;10440705;28;20533;-66
2022/09/17 16:35:51;;;;;;;5.47;1.20;;;17.60;90.00;;;;;;10441005;28;20113;-62
2022/09/17 16:40:51;;;;;;;1.90;0.60;;;17.60;90.00;;;;;;10420903;28;20039;-62
2022/09/17 16:46:02;;;;;;;2.85;0.77;;;17.60;90.00;;;;;;10442162;28;20391;-62
2022/09/17 16:51:07;;;;;;;4.45;0.70;;;17.50;89.80;;;;;;10443964;28;20391;-68
2022/09/17 16:56:09;;;;;;;1.85;0.70;;;17.50;89.80;;;;;;10444286;28;20116;-69
2022/09/17 17:01:12;;;;;;;4.30;0.50;;;17.50;90.00;;;;;;10441213;28;20404;-62
2022/09/17 17:06:20;;;;;;;3.85;0.60;;;17.40;89.90;;;;;;10450309;28;20019;-63
2022/09/17 17:11:21;;;;;;;2.65;0.50;;;17.40;89.80;;;;;;10443000;28;20109;-62
2022/09/17 17:16:24;;;;;;;3.38;0.70;;;17.40;89.90;;;;;;10423565;28;20583;-62
2022/09/17 17:21:27;;;;;;;3.33;0.60;;;17.30;89.90;;;;;;10442226;28;20055;-62
2022/09/17 17:26:28;;;;;;;3.92;0.80;;;17.30;89.90;;;;;;10442839;28;20024;-70
2022/09/17 17:31:29;;;;;;;3.08;0.60;;;17.30;89.80;;;;;;10444003;28;20028;-62
2022/09/17 17:36:30;;;;;;;4.20;0.73;;;17.30;89.80;;;;;;10441420;28;20631;-63
2022/09/17 17:41:31;;;;;;;2.85;1.10;;;17.30;89.80;;;;;;10443182;28;20260;-63
2022/09/17 17:46:32;;;;;;;3.10;0.70;;;17.20;89.70;;;;;;10443255;28;20805;-62
2022/09/17 17:51:34;;;;;;;3.72;0.80;;;17.20;89.70;;;;;;10444243;28;20036;-63
2022/09/17 17:56:35;;;;;;;5.75;1.58;;;17.20;89.70;;;;;;10444318;28;20300;-63
2022/09/17 18:01:37;;;;;;;4.22;1.00;;;17.20;89.70;;;;;;10419087;28;20200;-69
2022/09/17 18:06:38;;;;;;;4.30;0.95;;;17.10;89.70;;;;;;10433503;28;20028;-70
2022/09/17 18:11:39;;;;;;;5.93;1.13;;;17.10;89.80;;;;;;10436963;28;20579;-62
2022/09/17 18:16:39;;;;;;;3.13;0.70;;;17.10;89.80;;;;;;10520958;28;20028;-62
2022/09/17 18:21:40;;;;;;;2.85;0.63;;;17.00;89.70;;;;;;10520712;28;20135;-62
2022/09/17 18:26:41;;;;;;;3.83;0.60;;;17.00;89.80;;;;;;10524909;28;20028;-64
2022/09/17 18:31:43;;;;;;;2.58;0.73;;;17.00;89.90;;;;;;10525498;28;20020;-63
2022/09/17 18:36:45;;;;;;;4.82;0.70;;;17.00;90.20;;;;;;10523511;28;20492;-62
2022/09/17 18:41:45;;;;;;;0.90;0.50;;;16.90;89.80;;;;;;10525509;28;20119;-63
2022/09/17 18:46:48;;;;;;;2.13;0.70;;;16.90;89.80;;;;;;10522708;28;20028;-62
2022/09/17 18:51:49;;;;;;;0.77;0.50;;;16.90;89.80;;;;;;10525315;28;20036;-62
2022/09/17 18:56:49;;;;;;;2.83;0.70;;;16.90;89.80;;;;;;10527964;28;20020;-65
2022/09/17 19:01:50;;;;;;;4.95;1.10;;;16.90;89.80;;;;;;10541900;28;20086;-68
2022/09/17 19:06:51;;;;;;;3.80;0.90;;;16.80;89.70;;;;;;10567737;28;20074;-62
2022/09/17 19:11:51;;;;;;;3.20;1.02;;;16.80;89.70;;;;;;10568543;28;20036;-62
2022/09/17 19:16:54;;;;;;;2.00;0.63;;;16.80;89.70;;;;;;10568858;27;20157;-63
2022/09/17 19:21:54;;;;;;;2.90;0.82;;;16.80;89.70;;;;;;10567485;27;20412;-62
2022/09/17 19:26:55;;;;;;;2.80;0.68;;;16.80;89.60;;;;;;10568857;27;20024;-62
2022/09/17 19:31:56;;;;;;;1.40;0.60;;;16.80;89.60;;;;;;10567126;27;20118;-62
2022/09/17 19:36:57;;;;;;;3.13;1.15;;;16.70;89.60;;;;;;10566693;28;20051;-62
2022/09/17 19:41:58;;;;;;;2.60;0.90;;;16.70;89.60;;;;;;10566963;27;20122;-62
2022/09/17 19:46:58;;;;;;;2.35;0.80;;;16.70;89.60;;;;;;10568692;27;20031;-62
2022/09/17 19:51:59;;;;;;;2.05;0.82;;;16.70;89.60;;;;;;10565826;28;20110;-62
2022/09/17 19:57:00;;;;;;;2.70;0.98;;;16.60;89.60;;;;;;10563504;28;20032;-62
2022/09/17 20:02:01;;;;;;;2.15;0.90;;;16.60;89.60;;;;;;10563751;27;20089;-63
2022/09/17 20:07:03;;;;;;;2.67;0.88;;;16.60;89.60;;;;;;10560215;28;20034;-69
2022/09/17 20:12:04;;;;;;;3.05;1.10;;;16.60;89.60;;;;;;10564993;28;20063;-62
2022/09/17 20:17:05;;;;;;;4.97;1.48;;;16.60;89.60;;;;;;10564785;28;20658;-63
2022/09/17 20:22:06;;;;;;;1.35;0.77;;;16.50;89.50;;;;;;10569288;27;20368;-63
2022/09/17 20:27:06;;;;;;;2.70;0.60;;;16.50;89.50;;;;;;10565549;27;20085;-62
2022/09/17 20:32:07;;;;;;;2.88;0.60;;;16.50;89.50;;;;;;10564399;27;20172;-63
2022/09/17 20:37:08;;;;;;;2.58;0.65;;;16.40;89.40;;;;;;10563953;27;20016;-62
2022/09/17 20:42:08;;;;;;;2.00;0.80;;;16.40;89.30;;;;;;10563577;27;20135;-62
2022/09/17 20:47:09;;;;;;;2.03;0.88;;;16.40;89.30;;;;;;10560509;28;20019;-62
2022/09/17 20:52:10;;;;;;;2.17;0.85;;;16.40;89.30;;;;;;10562647;27;20020;-63
2022/09/17 20:57:10;;;;;;;1.77;0.90;;;16.40;89.30;;;;;;10563828;28;20403;-63
2022/09/17 21:02:13;;;;;;;3.08;1.05;;;16.40;89.30;;;;;;10563648;27;20050;-63
2022/09/17 21:07:15;;;;;;;1.95;0.77;;;16.30;89.20;;;;;;10564054;28;20051;-62
2022/09/17 21:12:16;;;;;;;1.52;0.70;;;16.30;89.20;;;;;;10560967;27;20034;-62
2022/09/17 21:17:16;;;;;;;1.42;0.50;;;16.30;89.20;;;;;;10557431;27;20031;-62
2022/09/17 21:22:17;;;;;;;1.52;0.60;;;16.30;89.20;;;;;;10561374;28;20642;-62
2022/09/17 21:27:18;;;;;;;4.38;1.15;;;16.30;89.20;;;;;;10561487;28;20039;-69
2022/09/17 21:32:19;;;;;;;3.10;0.90;;;16.20;89.10;;;;;;10541978;28;20508;-62
2022/09/17 21:37:19;;;;;;;2.38;0.80;;;16.20;89.00;;;;;;10561803;28;20012;-62
2022/09/17 21:42:20;;;;;;;1.63;0.80;;;16.20;89.10;;;;;;10561847;28;20265;-62
2022/09/17 21:47:20;;;;;;;2.08;0.60;;;16.20;89.00;;;;;;10564335;28;20298;-62
2022/09/17 21:52:32;;;;;;;3.13;0.70;;;16.20;89.10;;;;;;10553246;28;20081;-62
2022/09/17 21:57:32;;;;;;;2.67;0.80;;;16.20;89.10;;;;;;10590616;22;21286;-62
2022/09/17 22:02:34;;;;;;;1.85;0.50;;;16.10;89.20;;;;;;10560971;27;20036;-62
2022/09/17 22:07:35;;;;;;;2.10;0.50;;;16.10;89.20;;;;;;10566830;28;20031;-63
2022/09/17 22:12:36;;;;;;;3.78;0.60;;;16.10;89.30;;;;;;10568007;28;20027;-64
2022/09/17 22:17:36;;;;;;;3.90;0.63;;;16.10;89.40;;;;;;10565108;28;20069;-66
2022/09/17 22:22:37;;;;;;;1.23;0.55;;;16.10;89.40;;;;;;10565883;28;20047;-63
2022/09/17 22:27:53;;;;;;;1.50;0.55;;;16.10;89.40;;;;;;10566406;28;20024;-65
2022/09/17 22:32:54;;;;;;;1.65;0.70;;;16.10;89.40;;;;;;10564203;28;20123;-69
2022/09/17 22:37:54;;;;;;;2.17;0.52;;;16.10;89.40;;;;;;10558972;28;20020;-63
2022/09/17 22:42:55;;;;;;;3.45;1.10;;;16.10;89.40;;;;;;10560481;28;20049;-69
2022/09/17 22:47:56;;;;;;;2.05;0.50;;;16.10;89.50;;;;;;10567864;28;20028;-63
2022/09/17 22:52:56;;;;;;;2.80;0.63;;;16.10;89.50;;;;;;10567674;28;20089;-67
2022/09/17 22:57:57;;;;;;;6.28;0.75;;;16.00;89.50;;;;;;10597806;22;20048;-63
2022/09/17 23:02:58;;;;;;;3.30;0.90;;;16.00;89.50;;;;;;10482635;28;20043;-63
2022/09/17 23:07:58;;;;;;;3.35;0.52;;;16.00;89.60;;;;;;10483329;28;20029;-63
2022/09/17 23:12:59;;;;;;;4.60;0.70;;;16.00;89.70;;;;;;10484223;28;20032;-64
2022/09/17 23:18:00;;;;;;;1.23;0.40;;;16.00;89.70;;;;;;10493796;22;20114;-64
2022/09/17 23:23:00;;;;;;;2.70;0.60;;;16.00;89.80;;;;;;10479826;28;20443;-63
2022/09/17 23:28:01;;;;;;;2.17;0.55;;;16.10;89.80;;;;;;10479792;28;20021;-64
2022/09/17 23:33:02;;;;;;;0.77;0.40;;;16.00;89.80;;;;;;10479040;28;20032;-63
2022/09/17 23:38:03;;;;;;;2.45;0.50;;;16.00;89.90;;;;;;10477932;28;20107;-63
2022/09/17 23:43:03;;;;;;;2.13;0.70;;;16.00;89.90;;;;;;10478927;28;20516;-63
2022/09/17 23:48:04;;;;;;;1.48;0.60;;;16.00;89.90;;;;;;10478943;28;20060;-63
2022/09/17 23:53:04;;;;;;;0.90;0.40;;;16.00;90.00;;;;;;10478248;28;20144;-63
2022/09/17 23:58:06;;;;;;;1.63;0.68;;;16.00;90.00;;;;;;10477089;28;20626;-63
